Time;durP1;ratioP1;P1;durP2;ratioP2;P2;SDS_P1;SDS_P2;PMS_P1;PMS_P2;Temp;Humidity;BMP_temperature;BMP_pressure;BME280_temperature;BME280_humidity;BME280_pressure;Samples;Min_cycle;Max_cycle;Signal;HPM_P1;HPM_P2
2023/05/09 00:00:10;;;;;;;4.70;4.40;;;;;;;;;;5028276;28;20053;-86
2023/05/09 00:02:40;;;;;;;4.60;4.30;;;;;;;;;;5048952;28;20044;-86
2023/05/09 00:05:08;;;;;;;4.55;4.15;;;;;;;;;;5046328;28;20049;-86
2023/05/09 00:07:36;;;;;;;4.35;4.05;;;;;;;;;;5041212;28;20403;-86
2023/05/09 00:10:04;;;;;;;4.38;4.07;;;;;;;;;;5045920;28;20049;-87
2023/05/09 00:12:31;;;;;;;4.18;3.88;;;;;;;;;;5050507;28;20057;-87
2023/05/09 00:14:58;;;;;;;4.32;4.00;;;;;;;;;;5048476;28;20055;-86
2023/05/09 00:17:27;;;;;;;4.15;3.85;;;;;;;;;;5032246;28;20061;-87
2023/05/09 00:19:54;;;;;;;5.53;3.95;;;;;;;;;;5049138;28;20041;-86
2023/05/09 00:22:22;;;;;;;3.97;3.67;;;;;;;;;;5054741;28;20049;-86
2023/05/09 00:24:49;;;;;;;4.05;3.65;;;;;;;;;;5030971;28;20041;-86
2023/05/09 00:27:17;;;;;;;3.85;3.55;;;;;;;;;;5049872;28;20467;-87
2023/05/09 00:29:45;;;;;;;4.00;3.70;;;;;;;;;;5049413;28;20133;-87
2023/05/09 00:32:12;;;;;;;3.47;3.17;;;;;;;;;;5050729;28;20064;-87
2023/05/09 00:34:40;;;;;;;3.40;3.20;;;;;;;;;;5050592;28;20076;-87
2023/05/09 00:37:07;;;;;;;3.40;3.20;;;;;;;;;;5033685;28;20136;-86
2023/05/09 00:39:35;;;;;;;3.50;3.17;;;;;;;;;;5024669;28;20119;-86
2023/05/09 00:42:02;;;;;;;3.45;3.25;;;;;;;;;;5046172;28;20057;-86
2023/05/09 00:44:30;;;;;;;3.10;2.90;;;;;;;;;;5027588;28;20041;-85
2023/05/09 00:46:58;;;;;;;3.60;3.30;;;;;;;;;;5051604;28;20132;-85
2023/05/09 00:49:25;;;;;;;3.00;2.80;;;;;;;;;;5047533;28;20127;-87
2023/05/09 00:51:54;;;;;;;3.20;3.00;;;;;;;;;;5029026;28;20072;-86
2023/05/09 00:54:21;;;;;;;3.30;2.47;;;;;;;;;;5047768;28;20071;-87
2023/05/09 00:56:49;;;;;;;2.85;2.65;;;;;;;;;;5031006;28;20079;-86
2023/05/09 00:59:17;;;;;;;2.65;2.55;;;;;;;;;;5052547;28;20052;-87
2023/05/09 01:01:47;;;;;;;2.65;2.55;;;;;;;;;;5054586;28;20049;-87
2023/05/09 01:04:18;;;;;;;2.85;2.65;;;;;;;;;;5058902;28;20043;-86
2023/05/09 01:06:55;;;;;;;2.65;2.55;;;;;;;;;;5069889;28;20063;-87
2023/05/09 01:09:32;;;;;;;3.03;2.72;;;;;;;;;;5066707;28;20049;-86
2023/05/09 01:12:09;;;;;;;2.80;2.70;;;;;;;;;;5043328;28;20101;-85
2023/05/09 01:14:46;;;;;;;5.05;2.72;;;;;;;;;;5056593;28;20041;-85
2023/05/09 01:17:20;;;;;;;3.15;2.95;;;;;;;;;;5057288;28;20053;-86
2023/05/09 01:19:55;;;;;;;2.97;2.78;;;;;;;;;;5033560;28;20057;-85
2023/05/09 01:22:26;;;;;;;3.95;3.20;;;;;;;;;;5049871;28;20072;-87
2023/05/09 01:25:26;;;;;;;3.22;3.03;;;;;;;;;;5031345;28;20139;-86
2023/05/09 01:28:13;;;;;;;3.28;3.00;;;;;;;;;;5011098;28;20080;-85
2023/05/09 01:30:46;;;;;;;4.22;3.15;;;;;;;;;;5048219;28;20060;-86
2023/05/09 01:33:17;;;;;;;3.20;3.00;;;;;;;;;;5049751;28;20047;-86
2023/05/09 01:35:48;;;;;;;3.60;3.30;;;;;;;;;;5023583;28;20123;-86
2023/05/09 01:38:19;;;;;;;3.10;2.80;;;;;;;;;;5023992;28;20128;-85
2023/05/09 01:40:48;;;;;;;2.80;2.60;;;;;;;;;;5024045;28;20122;-87
2023/05/09 01:43:18;;;;;;;2.35;2.25;;;;;;;;;;5028512;28;20040;-87
2023/05/09 01:45:47;;;;;;;2.30;2.20;;;;;;;;;;5016034;28;20051;-87
2023/05/09 01:48:14;;;;;;;2.10;2.00;;;;;;;;;;5029508;28;20407;-87
2023/05/09 01:50:42;;;;;;;2.13;2.03;;;;;;;;;;5042069;28;20080;-87
2023/05/09 01:53:10;;;;;;;1.90;1.80;;;;;;;;;;5048867;28;20110;-87
2023/05/09 01:55:41;;;;;;;2.50;2.40;;;;;;;;;;5046896;28;20402;-86
2023/05/09 01:58:10;;;;;;;2.53;2.33;;;;;;;;;;5024052;28;20041;-87
2023/05/09 02:00:38;;;;;;;2.50;2.40;;;;;;;;;;5046923;28;21433;-87
2023/05/09 02:03:05;;;;;;;2.63;2.30;;;;;;;;;;5030869;28;20047;-87
2023/05/09 02:05:33;;;;;;;2.38;2.17;;;;;;;;;;5027908;28;20049;-86
2023/05/09 02:08:00;;;;;;;2.30;2.20;;;;;;;;;;5036998;28;20056;-86
2023/05/09 02:10:28;;;;;;;2.40;2.30;;;;;;;;;;5029644;28;20045;-87
2023/05/09 02:12:57;;;;;;;2.40;2.30;;;;;;;;;;5029256;28;20282;-86
2023/05/09 02:15:25;;;;;;;2.40;2.20;;;;;;;;;;5027003;28;20400;-86
2023/05/09 02:17:53;;;;;;;2.40;2.30;;;;;;;;;;5045597;28;20051;-87
2023/05/09 02:20:21;;;;;;;2.55;2.38;;;;;;;;;;5028623;28;20043;-87
2023/05/09 02:22:48;;;;;;;2.13;2.03;;;;;;;;;;5048616;28;20045;-87
2023/05/09 02:25:17;;;;;;;2.47;2.10;;;;;;;;;;5043479;28;20049;-87
2023/05/09 02:27:45;;;;;;;2.30;2.10;;;;;;;;;;5023217;28;20045;-86
2023/05/09 02:30:19;;;;;;;2.20;2.00;;;;;;;;;;5047379;28;20057;-87
2023/05/09 02:32:48;;;;;;;2.42;2.30;;;;;;;;;;5048164;28;20151;-86
2023/05/09 02:35:16;;;;;;;2.28;2.17;;;;;;;;;;5030379;28;20055;-87
2023/05/09 02:37:45;;;;;;;3.20;2.00;;;;;;;;;;5043417;28;20047;-86
2023/05/09 02:40:13;;;;;;;2.17;2.00;;;;;;;;;;5044723;28;20043;-87
2023/05/09 02:42:41;;;;;;;1.90;1.80;;;;;;;;;;5045865;28;20094;-86
2023/05/09 02:45:09;;;;;;;1.98;1.88;;;;;;;;;;5045570;28;20049;-87
2023/05/09 02:47:37;;;;;;;2.10;2.00;;;;;;;;;;5025003;28;20654;-85
2023/05/09 02:50:05;;;;;;;2.17;2.08;;;;;;;;;;5029366;28;20673;-86
2023/05/09 02:52:35;;;;;;;2.30;2.10;;;;;;;;;;5028293;28;20053;-85
2023/05/09 02:55:03;;;;;;;2.00;1.90;;;;;;;;;;5027179;28;20445;-86
2023/05/09 02:57:32;;;;;;;2.30;2.20;;;;;;;;;;5025786;28;20068;-86
2023/05/09 03:00:00;;;;;;;2.28;2.17;;;;;;;;;;5046340;28;20152;-87
2023/05/09 03:02:28;;;;;;;2.83;2.63;;;;;;;;;;5025072;28;20041;-87
2023/05/09 03:04:56;;;;;;;2.40;2.30;;;;;;;;;;5025536;28;20036;-86
2023/05/09 03:07:24;;;;;;;2.40;2.30;;;;;;;;;;5048242;28;20044;-86
2023/05/09 03:09:51;;;;;;;3.40;2.05;;;;;;;;;;5027973;28;20045;-86
2023/05/09 03:12:19;;;;;;;2.40;2.20;;;;;;;;;;5028390;28;20045;-85
2023/05/09 03:14:46;;;;;;;2.60;2.40;;;;;;;;;;5023238;28;20641;-86
2023/05/09 03:17:20;;;;;;;2.72;2.53;;;;;;;;;;5029548;28;20133;-87
2023/05/09 03:19:47;;;;;;;2.37;2.17;;;;;;;;;;5027072;28;20073;-87
2023/05/09 03:22:15;;;;;;;1.98;1.88;;;;;;;;;;5046488;28;20045;-86
2023/05/09 03:24:51;;;;;;;2.78;2.30;;;;;;;;;;5028579;28;20067;-87
2023/05/09 03:27:19;;;;;;;3.33;2.38;;;;;;;;;;5046740;28;20106;-86
2023/05/09 03:29:47;;;;;;;2.17;2.08;;;;;;;;;;5026242;28;20053;-87
2023/05/09 03:32:16;;;;;;;2.20;2.05;;;;;;;;;;5038253;28;20433;-88
2023/05/09 03:34:43;;;;;;;2.13;1.83;;;;;;;;;;5044057;28;20585;-87
2023/05/09 03:37:11;;;;;;;6.53;2.30;;;;;;;;;;5031874;28;20115;-87
2023/05/09 03:39:40;;;;;;;2.35;2.15;;;;;;;;;;5040795;28;20049;-86
2023/05/09 03:42:07;;;;;;;2.05;1.95;;;;;;;;;;5022930;28;20493;-86
2023/05/09 03:44:35;;;;;;;4.00;2.30;;;;;;;;;;5015359;28;20038;-86
2023/05/09 03:47:02;;;;;;;2.50;2.35;;;;;;;;;;5024618;28;20049;-86
2023/05/09 03:49:36;;;;;;;2.50;2.30;;;;;;;;;;5018519;28;20052;-87
2023/05/09 03:52:04;;;;;;;2.28;2.17;;;;;;;;;;5022199;28;20050;-87
2023/05/09 03:54:33;;;;;;;2.38;2.28;;;;;;;;;;5016247;28;20077;-86
2023/05/09 03:57:01;;;;;;;2.30;2.10;;;;;;;;;;5018933;28;20041;-85
2023/05/09 03:59:28;;;;;;;2.25;2.15;;;;;;;;;;5016906;28;20040;-86
2023/05/09 04:01:56;;;;;;;2.10;2.00;;;;;;;;;;5021393;28;20815;-86
2023/05/09 04:04:26;;;;;;;2.13;2.03;;;;;;;;;;5022169;28;20519;-87
2023/05/09 04:06:54;;;;;;;1.90;1.80;;;;;;;;;;5023352;28;20065;-85
2023/05/09 04:09:21;;;;;;;2.63;2.42;;;;;;;;;;5030857;28;20052;-87
2023/05/09 04:11:50;;;;;;;2.25;2.15;;;;;;;;;;5045441;28;20103;-84
2023/05/09 04:14:18;;;;;;;2.20;2.10;;;;;;;;;;5070505;28;20036;-86
2023/05/09 04:16:45;;;;;;;2.30;2.05;;;;;;;;;;5055113;28;20100;-85
2023/05/09 04:19:12;;;;;;;3.25;2.20;;;;;;;;;;5052213;28;20032;-80
2023/05/09 04:21:40;;;;;;;2.45;2.30;;;;;;;;;;5067579;28;20072;-81
2023/05/09 04:24:08;;;;;;;2.60;2.00;;;;;;;;;;5039362;28;20068;-85
2023/05/09 04:26:46;;;;;;;2.28;2.13;;;;;;;;;;5034200;28;20114;-84
2023/05/09 04:29:18;;;;;;;2.63;2.42;;;;;;;;;;5033045;28;20075;-84
2023/05/09 04:31:50;;;;;;;2.50;2.30;;;;;;;;;;5043178;28;20503;-85
2023/05/09 04:34:19;;;;;;;2.28;2.08;;;;;;;;;;5017600;28;20092;-83
2023/05/09 04:36:47;;;;;;;2.58;2.38;;;;;;;;;;5031369;28;20403;-84
2023/05/09 04:39:14;;;;;;;2.50;2.30;;;;;;;;;;5043078;28;20037;-84
2023/05/09 04:41:51;;;;;;;2.22;2.03;;;;;;;;;;5024750;28;20055;-85
2023/05/09 04:44:20;;;;;;;2.25;2.15;;;;;;;;;;5022792;28;20074;-85
2023/05/09 04:46:49;;;;;;;2.63;2.42;;;;;;;;;;5017602;28;20053;-84
2023/05/09 04:49:16;;;;;;;2.30;2.08;;;;;;;;;;5013899;28;20132;-82
2023/05/09 04:51:44;;;;;;;2.50;2.30;;;;;;;;;;5015219;28;20053;-84
2023/05/09 04:54:11;;;;;;;2.20;2.10;;;;;;;;;;5033607;28;20065;-85
2023/05/09 04:56:40;;;;;;;2.20;2.10;;;;;;;;;;5022164;28;20061;-85
2023/05/09 04:59:07;;;;;;;3.20;2.90;;;;;;;;;;5046966;28;20131;-85
2023/05/09 05:01:35;;;;;;;2.60;2.40;;;;;;;;;;5021789;28;20047;-84
2023/05/09 05:04:03;;;;;;;3.55;2.60;;;;;;;;;;5043814;28;20434;-85
2023/05/09 05:06:31;;;;;;;2.75;2.55;;;;;;;;;;5021668;28;20550;-83
2023/05/09 05:08:59;;;;;;;2.65;2.55;;;;;;;;;;5034201;28;20500;-84
2023/05/09 05:11:27;;;;;;;3.35;2.90;;;;;;;;;;5033001;28;20462;-83
2023/05/09 05:13:58;;;;;;;3.22;2.97;;;;;;;;;;5026708;28;20045;-84
2023/05/09 05:16:26;;;;;;;2.85;2.65;;;;;;;;;;5027923;28;20045;-86
2023/05/09 05:18:53;;;;;;;3.30;2.97;;;;;;;;;;5031723;28;20132;-85
2023/05/09 05:21:22;;;;;;;3.65;3.35;;;;;;;;;;5031590;28;20457;-86
2023/05/09 05:23:49;;;;;;;2.78;2.60;;;;;;;;;;5025506;28;20076;-85
2023/05/09 05:26:16;;;;;;;3.10;2.90;;;;;;;;;;5049080;28;20049;-85
2023/05/09 05:28:44;;;;;;;3.00;2.70;;;;;;;;;;5030245;28;20052;-84
2023/05/09 05:31:13;;;;;;;3.15;2.95;;;;;;;;;;5029782;28;20051;-84
2023/05/09 05:33:41;;;;;;;3.30;3.10;;;;;;;;;;5029266;28;20099;-85
2023/05/09 05:36:08;;;;;;;3.15;2.95;;;;;;;;;;5027298;28;20045;-86
2023/05/09 05:38:39;;;;;;;3.57;2.77;;;;;;;;;;5050260;28;20531;-86
2023/05/09 05:41:10;;;;;;;3.35;3.10;;;;;;;;;;5033335;28;20048;-85
2023/05/09 05:43:39;;;;;;;3.22;3.00;;;;;;;;;;5028253;28;21012;-84
2023/05/09 05:46:06;;;;;;;2.95;2.75;;;;;;;;;;5031101;28;20474;-85
2023/05/09 05:48:34;;;;;;;3.78;2.55;;;;;;;;;;5027532;28;20049;-83
2023/05/09 05:51:02;;;;;;;2.88;2.67;;;;;;;;;;5039634;28;20072;-82
2023/05/09 05:53:31;;;;;;;3.50;2.60;;;;;;;;;;5021493;28;20048;-83
2023/05/09 05:55:59;;;;;;;2.67;2.47;;;;;;;;;;5022313;28;20044;-85
2023/05/09 05:58:27;;;;;;;2.20;2.10;;;;;;;;;;5027294;28;20041;-84
2023/05/09 06:00:54;;;;;;;2.30;2.10;;;;;;;;;;5025373;28;20103;-84
2023/05/09 06:03:21;;;;;;;2.58;2.42;;;;;;;;;;5028748;28;20065;-84
2023/05/09 06:05:56;;;;;;;2.28;2.08;;;;;;;;;;5021701;28;20051;-85
2023/05/09 06:08:25;;;;;;;2.35;2.25;;;;;;;;;;5027109;28;20049;-81
2023/05/09 06:10:53;;;;;;;2.38;2.28;;;;;;;;;;5044986;28;20131;-84
2023/05/09 06:13:20;;;;;;;2.65;2.00;;;;;;;;;;5030423;28;20049;-82
2023/05/09 06:15:54;;;;;;;2.65;2.45;;;;;;;;;;5023666;28;20527;-83
2023/05/09 06:18:31;;;;;;;2.38;2.20;;;;;;;;;;5050605;28;20047;-85
2023/05/09 06:21:00;;;;;;;2.40;2.20;;;;;;;;;;5021595;28;20103;-84
2023/05/09 06:23:27;;;;;;;2.50;2.30;;;;;;;;;;5027727;28;20068;-85
2023/05/09 06:25:54;;;;;;;2.20;2.10;;;;;;;;;;5026735;28;20045;-83
2023/05/09 06:28:22;;;;;;;3.03;2.63;;;;;;;;;;5042530;28;20041;-84
2023/05/09 06:30:49;;;;;;;2.58;2.38;;;;;;;;;;5041999;28;20052;-85
2023/05/09 06:33:20;;;;;;;2.30;2.20;;;;;;;;;;5038180;28;20450;-83
2023/05/09 06:35:47;;;;;;;2.53;2.33;;;;;;;;;;5042088;28;20048;-85
2023/05/09 06:38:14;;;;;;;3.63;2.40;;;;;;;;;;5038306;28;20053;-84
2023/05/09 06:40:42;;;;;;;2.45;2.33;;;;;;;;;;5046884;28;20063;-84
2023/05/09 06:43:09;;;;;;;2.28;2.17;;;;;;;;;;5041225;28;20053;-82
2023/05/09 06:45:36;;;;;;;2.97;2.80;;;;;;;;;;5040633;28;20064;-84
2023/05/09 06:48:04;;;;;;;2.72;2.40;;;;;;;;;;5043715;28;20048;-85
2023/05/09 06:50:31;;;;;;;2.20;2.10;;;;;;;;;;5047656;28;20052;-83
2023/05/09 06:52:59;;;;;;;2.25;2.15;;;;;;;;;;5046429;28;20049;-84
2023/05/09 06:55:27;;;;;;;3.08;2.17;;;;;;;;;;5045265;28;20049;-85
2023/05/09 06:57:54;;;;;;;2.20;2.10;;;;;;;;;;5044537;28;20052;-83
2023/05/09 07:00:21;;;;;;;2.47;2.38;;;;;;;;;;5041724;28;20045;-83
2023/05/09 07:02:49;;;;;;;2.58;2.38;;;;;;;;;;5034187;28;20507;-84
2023/05/09 07:05:17;;;;;;;2.88;2.67;;;;;;;;;;5037552;28;20040;-83
2023/05/09 07:07:44;;;;;;;2.63;2.42;;;;;;;;;;5040491;28;20057;-86
2023/05/09 07:10:12;;;;;;;2.60;2.40;;;;;;;;;;5037774;28;20045;-87
2023/05/09 07:12:40;;;;;;;2.42;2.30;;;;;;;;;;5036325;28;20064;-84
2023/05/09 07:15:09;;;;;;;2.80;2.60;;;;;;;;;;5041870;28;20045;-87
2023/05/09 07:17:39;;;;;;;2.65;2.45;;;;;;;;;;5052270;28;20056;-86
2023/05/09 07:20:07;;;;;;;2.70;2.50;;;;;;;;;;5056279;28;20052;-84
2023/05/09 07:22:34;;;;;;;2.30;2.20;;;;;;;;;;5060689;28;20049;-86
2023/05/09 07:25:04;;;;;;;2.45;2.30;;;;;;;;;;5041992;28;20140;-85
2023/05/09 07:27:31;;;;;;;2.40;2.30;;;;;;;;;;5042636;28;20029;-83
2023/05/09 07:29:59;;;;;;;2.67;2.35;;;;;;;;;;5054102;28;20045;-83
2023/05/09 07:32:27;;;;;;;2.70;2.50;;;;;;;;;;5066500;28;20055;-83
2023/05/09 07:34:55;;;;;;;2.60;2.40;;;;;;;;;;5055422;28;20033;-84
2023/05/09 07:37:22;;;;;;;2.63;2.42;;;;;;;;;;5046333;28;20510;-84
2023/05/09 07:39:50;;;;;;;2.95;2.65;;;;;;;;;;5048452;28;20068;-83
2023/05/09 07:42:18;;;;;;;2.80;2.60;;;;;;;;;;5035110;28;20049;-84
2023/05/09 07:44:45;;;;;;;2.63;2.30;;;;;;;;;;5037859;28;20722;-84
2023/05/09 07:47:12;;;;;;;2.70;2.50;;;;;;;;;;5048860;28;20037;-83
2023/05/09 07:49:42;;;;;;;3.10;2.80;;;;;;;;;;5041508;28;20099;-85
2023/05/09 07:52:09;;;;;;;2.50;2.30;;;;;;;;;;5048578;28;20075;-84
2023/05/09 07:54:36;;;;;;;2.50;2.30;;;;;;;;;;5032152;28;20041;-84
2023/05/09 07:57:04;;;;;;;3.13;2.90;;;;;;;;;;5043874;28;20053;-83
2023/05/09 07:59:31;;;;;;;3.05;2.85;;;;;;;;;;5046791;28;20092;-83
2023/05/09 08:01:58;;;;;;;2.70;2.60;;;;;;;;;;5040162;28;20055;-85
2023/05/09 08:04:29;;;;;;;2.33;2.22;;;;;;;;;;5040062;28;20049;-85
2023/05/09 08:06:58;;;;;;;3.17;2.83;;;;;;;;;;5051543;28;20643;-83
2023/05/09 08:09:25;;;;;;;2.60;2.38;;;;;;;;;;5053308;28;20163;-84
2023/05/09 08:11:53;;;;;;;3.10;2.42;;;;;;;;;;5050785;28;20044;-82
2023/05/09 08:14:20;;;;;;;2.45;2.30;;;;;;;;;;5049004;28;20106;-85
2023/05/09 08:16:47;;;;;;;2.90;2.70;;;;;;;;;;5052472;28;20367;-85
2023/05/09 08:19:14;;;;;;;3.22;2.92;;;;;;;;;;5052399;28;20506;-83
2023/05/09 08:21:42;;;;;;;2.67;2.47;;;;;;;;;;5048520;28;20938;-83
2023/05/09 08:24:09;;;;;;;2.00;1.90;;;;;;;;;;5035050;28;20041;-83
2023/05/09 08:26:36;;;;;;;2.53;2.33;;;;;;;;;;5052389;28;20072;-84
2023/05/09 08:29:04;;;;;;;2.53;2.33;;;;;;;;;;5045831;28;20157;-85
2023/05/09 08:31:31;;;;;;;2.65;2.45;;;;;;;;;;5052718;28;20049;-84
2023/05/09 08:33:58;;;;;;;2.13;2.03;;;;;;;;;;5052593;28;20048;-84
2023/05/09 08:36:26;;;;;;;2.22;2.10;;;;;;;;;;5051529;28;20377;-84
2023/05/09 08:38:53;;;;;;;2.65;2.45;;;;;;;;;;5052743;28;20072;-84
2023/05/09 08:41:26;;;;;;;2.25;2.15;;;;;;;;;;5053358;28;20045;-84
2023/05/09 08:43:54;;;;;;;2.35;2.10;;;;;;;;;;5052162;28;20067;-84
2023/05/09 08:46:29;;;;;;;2.00;1.90;;;;;;;;;;5052581;28;20160;-85
2023/05/09 08:48:57;;;;;;;2.10;2.00;;;;;;;;;;5051151;28;20187;-84
2023/05/09 08:51:25;;;;;;;2.15;2.05;;;;;;;;;;5050015;28;20076;-84
2023/05/09 08:53:52;;;;;;;2.00;1.73;;;;;;;;;;5052605;28;20051;-82
2023/05/09 08:56:20;;;;;;;2.20;2.00;;;;;;;;;;5051061;28;20045;-84
2023/05/09 08:58:47;;;;;;;2.17;2.00;;;;;;;;;;5052348;28;20171;-84
2023/05/09 09:01:15;;;;;;;2.08;1.98;;;;;;;;;;5049635;28;20539;-84
2023/05/09 09:03:46;;;;;;;2.15;2.05;;;;;;;;;;5051412;28;20091;-84
2023/05/09 09:06:14;;;;;;;2.58;2.00;;;;;;;;;;5051500;28;20521;-84
2023/05/09 09:08:41;;;;;;;6.03;2.10;;;;;;;;;;5049884;28;20137;-83
2023/05/09 09:11:13;;;;;;;2.28;2.17;;;;;;;;;;5031453;28;20510;-84
2023/05/09 09:13:40;;;;;;;;;;;;;;;;;;5052211;28;20049;-85
2023/05/09 09:16:10;;;;;;;2.00;1.90;;;;;;;;;;5024020;28;19928;-85
2023/05/09 09:18:38;;;;;;;2.15;2.05;;;;;;;;;;5025387;28;20045;-84
2023/05/09 09:21:08;;;;;;;1.92;1.83;;;;;;;;;;5037200;28;20041;-83
2023/05/09 09:23:40;;;;;;;1.90;1.80;;;;;;;;;;5043929;28;20052;-84
2023/05/09 09:26:07;;;;;;;2.40;2.20;;;;;;;;;;5038395;28;20465;-83
2023/05/09 09:28:35;;;;;;;1.85;1.75;;;;;;;;;;5044935;28;20063;-84
2023/05/09 09:31:18;;;;;;;2.00;1.90;;;;;;;;;;5049345;28;20067;-84
2023/05/09 09:33:46;;;;;;;1.90;1.80;;;;;;;;;;5053913;28;20131;-84
2023/05/09 09:36:14;;;;;;;2.20;2.10;;;;;;;;;;5048808;28;20045;-84
2023/05/09 09:38:42;;;;;;;2.15;1.80;;;;;;;;;;5051420;28;20036;-85
2023/05/09 09:41:11;;;;;;;4.32;2.30;;;;;;;;;;5049018;28;20640;-86
2023/05/09 09:43:46;;;;;;;2.40;2.20;;;;;;;;;;5049555;28;20411;-86
2023/05/09 09:46:15;;;;;;;1.75;1.73;;;;;;;;;;5043340;28;20588;-85
2023/05/09 09:48:51;;;;;;;1.90;1.80;;;;;;;;;;5052148;28;20620;-86
2023/05/09 09:51:19;;;;;;;1.90;1.80;;;;;;;;;;5050637;28;20048;-86
2023/05/09 09:53:47;;;;;;;2.08;1.98;;;;;;;;;;5049727;28;20045;-83
2023/05/09 09:56:14;;;;;;;2.40;2.30;;;;;;;;;;5050529;28;20052;-85
2023/05/09 09:58:42;;;;;;;2.30;2.10;;;;;;;;;;5053143;28;20040;-85
2023/05/09 10:01:10;;;;;;;1.75;1.70;;;;;;;;;;5050323;28;20053;-83
2023/05/09 10:03:39;;;;;;;1.58;1.50;;;;;;;;;;5051437;28;20029;-84
2023/05/09 10:06:11;;;;;;;1.83;1.73;;;;;;;;;;5045883;28;20047;-84
2023/05/09 10:08:39;;;;;;;3.00;2.80;;;;;;;;;;5053345;28;20045;-86
2023/05/09 10:11:09;;;;;;;2.45;2.30;;;;;;;;;;5025031;28;20532;-85
2023/05/09 10:13:37;;;;;;;2.63;2.15;;;;;;;;;;5049326;28;20052;-84
2023/05/09 10:16:05;;;;;;;2.15;2.00;;;;;;;;;;5048328;28;20044;-85
2023/05/09 10:18:33;;;;;;;2.58;2.10;;;;;;;;;;5049271;28;20707;-82
2023/05/09 10:21:05;;;;;;;2.40;2.30;;;;;;;;;;5048283;28;20527;-84
2023/05/09 10:23:33;;;;;;;2.10;2.00;;;;;;;;;;5042956;28;20045;-83
2023/05/09 10:26:17;;;;;;;2.00;1.90;;;;;;;;;;5041995;28;20052;-84
2023/05/09 10:28:46;;;;;;;2.22;2.03;;;;;;;;;;5047675;28;20044;-84
2023/05/09 10:31:15;;;;;;;2.20;2.10;;;;;;;;;;5049491;28;20102;-85
2023/05/09 10:33:47;;;;;;;3.53;1.80;;;;;;;;;;5041646;28;20057;-84
2023/05/09 10:36:21;;;;;;;1.65;1.60;;;;;;;;;;5011638;28;20060;-84
2023/05/09 10:38:49;;;;;;;2.00;1.90;;;;;;;;;;5046299;28;20048;-83
2023/05/09 10:41:26;;;;;;;2.78;2.20;;;;;;;;;;5043325;28;20047;-84
2023/05/09 10:43:58;;;;;;;1.88;1.77;;;;;;;;;;5042987;28;20065;-83
2023/05/09 10:46:26;;;;;;;1.77;1.67;;;;;;;;;;5043046;28;20049;-84
2023/05/09 10:48:54;;;;;;;2.20;2.00;;;;;;;;;;5046286;28;20100;-83
2023/05/09 10:51:21;;;;;;;1.80;1.70;;;;;;;;;;5043019;28;20053;-83
2023/05/09 10:53:49;;;;;;;1.95;1.85;;;;;;;;;;5037208;28;20052;-83
2023/05/09 10:56:23;;;;;;;1.90;1.80;;;;;;;;;;5047319;28;20308;-85
2023/05/09 10:58:50;;;;;;;1.65;1.55;;;;;;;;;;5061058;28;20049;-83
2023/05/09 11:01:35;;;;;;;1.70;1.60;;;;;;;;;;5056474;28;20034;-83
2023/05/09 11:04:13;;;;;;;1.70;1.60;;;;;;;;;;5062992;28;20055;-83
2023/05/09 11:06:45;;;;;;;2.47;2.17;;;;;;;;;;5058037;28;20128;-81
2023/05/09 11:09:26;;;;;;;2.00;1.90;;;;;;;;;;5054405;28;20029;-83
2023/05/09 11:11:54;;;;;;;;;;;;;;;;;;5041992;28;20053;-82
2023/05/09 11:14:52;;;;;;;2.15;2.05;;;;;;;;;;5040588;28;19970;-82
2023/05/09 11:17:20;;;;;;;1.95;1.80;;;;;;;;;;5033539;28;20462;-82
2023/05/09 11:19:47;;;;;;;1.58;1.48;;;;;;;;;;5050969;28;20059;-84
2023/05/09 11:22:15;;;;;;;1.80;1.70;;;;;;;;;;5024862;28;20052;-83
2023/05/09 11:24:46;;;;;;;1.65;1.60;;;;;;;;;;5050088;28;20478;-84
2023/05/09 11:27:20;;;;;;;1.80;1.70;;;;;;;;;;5037977;28;21029;-83
2023/05/09 11:29:52;;;;;;;2.20;2.10;;;;;;;;;;5043075;28;20533;-83
2023/05/09 11:32:20;;;;;;;1.90;1.80;;;;;;;;;;5048778;28;20048;-84
2023/05/09 11:34:48;;;;;;;1.77;1.67;;;;;;;;;;5046795;28;20084;-84
2023/05/09 11:37:19;;;;;;;1.60;1.50;;;;;;;;;;5046332;28;20489;-83
2023/05/09 11:39:59;;;;;;;1.40;1.30;;;;;;;;;;5044405;28;20048;-83
2023/05/09 11:42:27;;;;;;;1.77;1.67;;;;;;;;;;5035910;28;20312;-82
2023/05/09 11:44:56;;;;;;;1.88;1.75;;;;;;;;;;5046214;28;20048;-82
2023/05/09 11:47:23;;;;;;;1.38;1.38;;;;;;;;;;5034347;28;20095;-83
2023/05/09 11:49:51;;;;;;;1.95;1.60;;;;;;;;;;5036898;28;20055;-84
2023/05/09 11:52:20;;;;;;;1.90;1.48;;;;;;;;;;5035654;28;20057;-82
2023/05/09 11:54:49;;;;;;;2.47;1.85;;;;;;;;;;5046714;28;20449;-82
2023/05/09 11:57:16;;;;;;;1.80;1.70;;;;;;;;;;5043161;28;20053;-83
2023/05/09 11:59:44;;;;;;;1.65;1.55;;;;;;;;;;5049264;28;20461;-83
2023/05/09 12:02:12;;;;;;;1.27;1.27;;;;;;;;;;5049019;28;20587;-83
2023/05/09 12:04:40;;;;;;;1.50;1.40;;;;;;;;;;5039881;28;20041;-83
2023/05/09 12:07:10;;;;;;;1.83;1.73;;;;;;;;;;5047883;28;20048;-85
2023/05/09 12:09:37;;;;;;;1.70;1.60;;;;;;;;;;5018221;28;20156;-84
2023/05/09 12:12:10;;;;;;;1.90;1.80;;;;;;;;;;5042874;28;20077;-84
2023/05/09 12:14:38;;;;;;;2.15;1.60;;;;;;;;;;5044401;28;20045;-82
2023/05/09 12:17:06;;;;;;;1.15;1.15;;;;;;;;;;5046341;28;20033;-83
2023/05/09 12:19:33;;;;;;;1.92;1.77;;;;;;;;;;5037290;28;20044;-83
2023/05/09 12:22:02;;;;;;;2.08;1.98;;;;;;;;;;5024354;28;20522;-81
2023/05/09 12:24:30;;;;;;;1.88;1.63;;;;;;;;;;5025389;28;20041;-83
2023/05/09 12:26:58;;;;;;;1.90;1.80;;;;;;;;;;5046240;28;20053;-82
2023/05/09 12:29:26;;;;;;;1.70;1.60;;;;;;;;;;5053693;28;20088;-83
2023/05/09 12:31:53;;;;;;;1.63;1.58;;;;;;;;;;5043778;28;20059;-83
2023/05/09 12:34:21;;;;;;;1.38;1.38;;;;;;;;;;5042693;28;20570;-83
2023/05/09 12:36:52;;;;;;;1.50;1.50;;;;;;;;;;5048827;28;20053;-83
2023/05/09 12:39:21;;;;;;;1.52;1.50;;;;;;;;;;5054163;28;20049;-83
2023/05/09 12:41:49;;;;;;;6.50;2.70;;;;;;;;;;5067492;28;20049;-84
2023/05/09 12:44:28;;;;;;;1.23;1.23;;;;;;;;;;5040802;28;20049;-84
2023/05/09 12:46:57;;;;;;;1.40;1.40;;;;;;;;;;5032891;28;20073;-83
2023/05/09 12:49:25;;;;;;;3.08;1.70;;;;;;;;;;5040088;28;20045;-82
2023/05/09 12:51:53;;;;;;;1.75;1.65;;;;;;;;;;5048541;28;20510;-82
2023/05/09 12:54:22;;;;;;;1.50;1.50;;;;;;;;;;5051102;28;20087;-83
2023/05/09 12:56:55;;;;;;;1.83;1.65;;;;;;;;;;5051462;28;20092;-83
2023/05/09 12:59:23;;;;;;;1.70;1.60;;;;;;;;;;5033204;28;20061;-83
2023/05/09 13:01:52;;;;;;;1.50;1.40;;;;;;;;;;5050020;28;20453;-83
2023/05/09 13:04:21;;;;;;;1.80;1.70;;;;;;;;;;5050002;28;20122;-84
2023/05/09 13:06:52;;;;;;;1.90;1.50;;;;;;;;;;5032999;28;20059;-84
2023/05/09 13:09:20;;;;;;;1.67;1.58;;;;;;;;;;5051621;28;20498;-84
2023/05/09 13:11:48;;;;;;;1.90;1.80;;;;;;;;;;5050073;28;20067;-83
2023/05/09 13:14:16;;;;;;;1.60;1.50;;;;;;;;;;5033050;28;20110;-84
2023/05/09 13:16:44;;;;;;;1.65;1.55;;;;;;;;;;5031989;28;20081;-81
2023/05/09 13:19:12;;;;;;;1.70;1.60;;;;;;;;;;5020184;28;20603;-82
2023/05/09 13:21:40;;;;;;;1.77;1.60;;;;;;;;;;5042088;28;20041;-83
2023/05/09 13:24:07;;;;;;;1.67;1.55;;;;;;;;;;5024231;28;20099;-82
2023/05/09 13:26:34;;;;;;;2.00;1.80;;;;;;;;;;5041379;28;20053;-83
2023/05/09 13:29:02;;;;;;;2.10;1.90;;;;;;;;;;5041407;28;20049;-82
2023/05/09 13:31:30;;;;;;;1.85;1.33;;;;;;;;;;5028319;28;20041;-83
2023/05/09 13:33:57;;;;;;;1.55;1.30;;;;;;;;;;5041123;28;20454;-82
2023/05/09 13:36:27;;;;;;;1.40;1.35;;;;;;;;;;5043548;28;20127;-84
2023/05/09 13:38:55;;;;;;;1.70;1.60;;;;;;;;;;5046230;28;20049;-85
2023/05/09 13:41:22;;;;;;;3.05;1.52;;;;;;;;;;5047115;28;20048;-83
2023/05/09 13:43:50;;;;;;;1.40;1.30;;;;;;;;;;5043378;28;20063;-82
2023/05/09 13:46:17;;;;;;;2.35;1.50;;;;;;;;;;5043700;28;20045;-82
2023/05/09 13:48:46;;;;;;;1.20;1.20;;;;;;;;;;5048046;28;20172;-83
2023/05/09 13:51:13;;;;;;;1.60;1.50;;;;;;;;;;5044953;28;20110;-82
2023/05/09 13:53:41;;;;;;;1.30;1.30;;;;;;;;;;5037453;28;20056;-83
2023/05/09 13:56:08;;;;;;;1.40;1.30;;;;;;;;;;5039491;28;20517;-83
2023/05/09 13:58:36;;;;;;;1.52;1.42;;;;;;;;;;5046684;28;20040;-83
2023/05/09 14:01:03;;;;;;;1.98;1.38;;;;;;;;;;5040263;28;20179;-84
2023/05/09 14:03:31;;;;;;;1.80;1.70;;;;;;;;;;5043667;28;20041;-83
2023/05/09 14:05:58;;;;;;;1.20;1.20;;;;;;;;;;5035844;28;20132;-83
2023/05/09 14:08:26;;;;;;;1.33;1.30;;;;;;;;;;5043449;28;20053;-82
2023/05/09 14:10:53;;;;;;;1.10;1.10;;;;;;;;;;5034392;28;20469;-82
2023/05/09 14:13:21;;;;;;;1.65;1.42;;;;;;;;;;5041897;28;20091;-82
2023/05/09 14:15:49;;;;;;;1.33;1.33;;;;;;;;;;5038985;28;20079;-83
2023/05/09 14:18:16;;;;;;;1.42;1.33;;;;;;;;;;5041808;28;20079;-83
2023/05/09 14:20:47;;;;;;;1.42;1.33;;;;;;;;;;5040134;28;20071;-82
2023/05/09 14:23:16;;;;;;;1.00;1.00;;;;;;;;;;5043404;28;20045;-82
2023/05/09 14:25:43;;;;;;;1.33;1.10;;;;;;;;;;5040582;28;20047;-80
2023/05/09 14:28:11;;;;;;;1.27;1.27;;;;;;;;;;5035111;28;20045;-82
2023/05/09 14:30:38;;;;;;;0.98;0.98;;;;;;;;;;5042481;28;20055;-82
2023/05/09 14:33:06;;;;;;;1.10;1.10;;;;;;;;;;5037362;28;20057;-82
2023/05/09 14:35:33;;;;;;;3.92;1.23;;;;;;;;;;5020399;28;20059;-82
2023/05/09 14:38:01;;;;;;;1.40;1.30;;;;;;;;;;5047046;28;20054;-84
2023/05/09 14:40:30;;;;;;;1.08;1.08;;;;;;;;;;5065931;28;20053;-82
2023/05/09 14:43:00;;;;;;;1.05;1.05;;;;;;;;;;5060282;28;20097;-83
2023/05/09 14:45:28;;;;;;;1.80;1.15;;;;;;;;;;5042640;28;20112;-82
2023/05/09 14:47:56;;;;;;;1.17;1.17;;;;;;;;;;5042467;28;20041;-82
2023/05/09 14:50:23;;;;;;;0.90;0.90;;;;;;;;;;5060263;28;20060;-82
2023/05/09 14:52:51;;;;;;;1.00;1.00;;;;;;;;;;5059539;28;20038;-81